Time,TemperatureF,DewpointF,PressureIn,WindDirection,WindDirectionDegrees,WindSpeedMPH,WindSpeedGustMPH,Humidity,HourlyPrecipIn,Conditions,Clouds,dailyrainin,SoftwareType,DateUTC
2013-04-20 00:10:00,66.0,63.6,29.43,WSW,247,5.1,-999.0,92,-99.99,,,0.01,Acu-Link.com,2013-04-20 04:10:00,
2013-04-20 00:25:00,64.4,64.1,29.43,North,0,1.1,-999.0,99,-99.99,,,0.12,Acu-Link.com,2013-04-20 04:25:00,
2013-04-20 00:41:00,63.9,63.6,29.43,NW,315,1.6,-999.0,99,-99.99,,,0.22,Acu-Link.com,2013-04-20 04:41:00,
2013-04-20 00:56:00,63.5,63.2,29.41,WNW,292,2.7,-999.0,99,-99.99,,,0.31,Acu-Link.com,2013-04-20 04:56:00,
2013-04-20 01:11:00,63.3,63.0,29.42,West,270,2.2,-999.0,99,-99.99,,,0.35,Acu-Link.com,2013-04-20 05:11:00,
2013-04-20 01:26:00,63.1,62.9,29.42,South,180,2.2,-999.0,99,-99.99,,,0.35,Acu-Link.com,2013-04-20 05:26:00,
2013-04-20 01:41:00,62.6,62.3,29.41,NW,315,1.6,-999.0,99,-99.99,,,0.36,Acu-Link.com,2013-04-20 05:41:00,
2013-04-20 01:57:00,62.4,62.1,29.42,SSE,157,2.7,-999.0,99,-99.99,,,0.36,Acu-Link.com,2013-04-20 05:57:00,
2013-04-20 02:12:00,62.2,62.0,29.39,WSW,247,1.1,-999.0,99,-99.99,,,0.40,Acu-Link.com,2013-04-20 06:12:00,
2013-04-20 02:27:00,57.2,56.1,29.41,West,270,4.7,-999.0,96,-99.99,,,0.42,Acu-Link.com,2013-04-20 06:27:00,
2013-04-20 02:42:00,54.1,53.9,29.42,NNE,22,1.6,-999.0,99,-99.99,,,0.55,Acu-Link.com,2013-04-20 06:42:00,
2013-04-20 02:58:00,53.2,53.0,29.42,NW,315,3.8,-999.0,99,-99.99,,,0.63,Acu-Link.com,2013-04-20 06:58:00,
2013-04-20 03:13:00,52.7,52.4,29.42,NW,315,2.7,-999.0,99,-99.99,,,0.67,Acu-Link.com,2013-04-20 07:13:00,
2013-04-20 03:28:00,52.3,52.1,29.42,NNW,337,2.2,-999.0,99,-99.99,,,0.69,Acu-Link.com,2013-04-20 07:28:00,
2013-04-20 03:43:00,51.8,51.5,29.42,NW,315,3.8,-999.0,99,-99.99,,,0.71,Acu-Link.com,2013-04-20 07:43:00,
2013-04-20 03:58:00,51.4,51.2,29.44,ENE,67,4.3,-999.0,99,-99.99,,,0.72,Acu-Link.com,2013-04-20 07:58:00,
2013-04-20 04:14:00,50.7,50.4,29.43,NNW,337,1.6,-999.0,99,-99.99,,,0.78,Acu-Link.com,2013-04-20 08:14:00,
2013-04-20 04:29:00,50.4,50.1,29.43,NW,315,3.8,-999.0,99,-99.99,,,0.85,Acu-Link.com,2013-04-20 08:29:00,
2013-04-20 04:44:00,48.4,48.1,29.44,NNW,337,1.6,-999.0,99,-99.99,,,0.89,Acu-Link.com,2013-04-20 08:44:00,
2013-04-20 04:59:00,47.5,47.2,29.46,NE,45,2.2,-999.0,99,-99.99,,,0.98,Acu-Link.com,2013-04-20 08:59:00,
2013-04-20 05:14:00,46.8,46.5,29.46,North,0,2.7,-999.0,99,-99.99,,,1.16,Acu-Link.com,2013-04-20 09:14:00,
2013-04-20 05:30:00,46.4,46.1,29.47,NW,315,2.2,-999.0,99,-99.99,,,1.30,Acu-Link.com,2013-04-20 09:30:00,
2013-04-20 05:45:00,46.2,46.0,29.46,NW,315,1.6,-999.0,99,-99.99,,,1.35,Acu-Link.com,2013-04-20 09:45:00,
2013-04-20 06:00:00,45.9,45.6,29.51,NNW,337,3.1,-999.0,99,-99.99,,,1.36,Acu-Link.com,2013-04-20 10:00:00,
2013-04-20 06:15:00,45.0,44.7,29.50,NW,315,2.7,-999.0,99,-99.99,,,1.44,Acu-Link.com,2013-04-20 10:15:00,
2013-04-20 06:31:00,44.4,44.2,29.50,ESE,112,2.2,-999.0,99,-99.99,,,1.44,Acu-Link.com,2013-04-20 10:31:00,
2013-04-20 06:46:00,44.1,43.5,29.53,ENE,67,1.1,-999.0,98,-99.99,,,1.44,Acu-Link.com,2013-04-20 10:46:00,
2013-04-20 07:01:00,43.9,43.4,29.54,West,270,3.1,-999.0,98,-99.99,,,1.44,Acu-Link.com,2013-04-20 11:01:00,
2013-04-20 07:16:00,43.7,43.2,29.56,NW,315,4.7,-999.0,98,-99.99,,,1.50,Acu-Link.com,2013-04-20 11:16:00,
2013-04-20 07:31:00,43.7,43.4,29.57,West,270,4.3,-999.0,99,-99.99,,,1.52,Acu-Link.com,2013-04-20 11:31:00,
2013-04-20 07:47:00,44.1,43.5,29.58,NW,315,3.8,-999.0,98,-99.99,,,1.52,Acu-Link.com,2013-04-20 11:47:00,
2013-04-20 08:02:00,43.9,42.5,29.57,NW,315,1.6,-999.0,95,-99.99,,,1.52,Acu-Link.com,2013-04-20 12:02:00,
2013-04-20 08:17:00,44.4,43.1,29.59,NW,315,2.7,-999.0,95,-99.99,,,1.52,Acu-Link.com,2013-04-20 12:17:00,
2013-04-20 08:32:00,45.3,44.0,29.59,NNW,337,0.0,-999.0,95,-99.99,,,1.52,Acu-Link.com,2013-04-20 12:32:00,
2013-04-20 08:47:00,45.7,43.5,29.59,WNW,292,3.1,-999.0,92,-99.99,,,1.52,Acu-Link.com,2013-04-20 12:47:00,
2013-04-20 09:03:00,46.4,42.7,29.59,WSW,247,2.7,-999.0,87,-99.99,,,1.52,Acu-Link.com,2013-04-20 13:03:00,
2013-04-20 09:18:00,46.4,42.4,29.58,SSE,157,4.7,-999.0,86,-99.99,,,1.52,Acu-Link.com,2013-04-20 13:18:00,
2013-04-20 09:33:00,46.6,41.1,29.58,West,270,6.3,-999.0,81,-99.99,,,1.52,Acu-Link.com,2013-04-20 13:33:00,
2013-04-20 09:48:00,46.4,40.2,29.59,WNW,292,3.8,-999.0,79,-99.99,,,1.52,Acu-Link.com,2013-04-20 13:48:00,
2013-04-20 10:04:00,50.4,42.7,29.60,NW,315,4.3,-999.0,75,-99.99,,,1.52,Acu-Link.com,2013-04-20 14:04:00,
2013-04-20 10:19:00,48.9,39.6,29.60,NNW,337,3.1,-999.0,70,-99.99,,,1.52,Acu-Link.com,2013-04-20 14:19:00,
2013-04-20 10:34:00,49.8,39.3,29.61,NW,315,2.7,-999.0,67,-99.99,,,1.52,Acu-Link.com,2013-04-20 14:34:00,
2013-04-20 10:49:00,51.1,39.3,29.63,NW,315,4.3,-999.0,64,-99.99,,,1.52,Acu-Link.com,2013-04-20 14:49:00,
2013-04-20 11:05:00,51.1,38.9,29.63,West,270,4.7,-999.0,63,-99.99,,,1.52,Acu-Link.com,2013-04-20 15:05:00,
2013-04-20 11:20:00,52.3,40.9,29.63,NNE,22,2.7,-999.0,65,-99.99,,,1.52,Acu-Link.com,2013-04-20 15:20:00,
2013-04-20 11:35:00,53.1,39.5,29.64,WNW,292,2.7,-999.0,60,-99.99,,,1.52,Acu-Link.com,2013-04-20 15:35:00,
2013-04-20 11:50:00,52.7,37.9,29.65,NW,315,3.1,-999.0,57,-99.99,,,1.52,Acu-Link.com,2013-04-20 15:50:00,
2013-04-20 12:05:00,53.2,38.0,29.64,NNW,337,6.7,-999.0,56,-99.99,,,1.52,Acu-Link.com,2013-04-20 16:05:00,
2013-04-20 12:21:00,52.3,38.0,29.65,NNW,337,3.8,-999.0,58,-99.99,,,1.52,Acu-Link.com,2013-04-20 16:21:00,
2013-04-20 12:36:00,52.9,37.6,29.66,NNW,337,7.4,-999.0,56,-99.99,,,1.52,Acu-Link.com,2013-04-20 16:36:00,
2013-04-20 12:51:00,53.1,37.3,29.65,NNW,337,5.8,-999.0,55,-99.99,,,1.52,Acu-Link.com,2013-04-20 16:51:00,
2013-04-20 13:06:00,53.4,37.7,29.65,WNW,292,8.9,-999.0,55,-99.99,,,1.52,Acu-Link.com,2013-04-20 17:06:00,
2013-04-20 13:21:00,54.0,37.7,29.65,WNW,292,5.1,-999.0,54,-99.99,,,1.52,Acu-Link.com,2013-04-20 17:21:00,
2013-04-20 13:37:00,53.8,32.9,29.66,WNW,292,12.5,-999.0,45,-99.99,,,1.52,Acu-Link.com,2013-04-20 17:37:00,
2013-04-20 13:52:00,53.8,33.5,29.66,NW,315,5.1,-999.0,46,-99.99,,,1.52,Acu-Link.com,2013-04-20 17:52:00,
2013-04-20 14:07:00,53.1,32.8,29.67,NW,315,7.4,-999.0,46,-99.99,,,1.52,Acu-Link.com,2013-04-20 18:07:00,
2013-04-20 14:22:00,52.3,33.2,29.67,West,270,3.8,-999.0,48,-99.99,,,1.52,Acu-Link.com,2013-04-20 18:22:00,
2013-04-20 14:38:00,53.1,34.4,29.67,WNW,292,4.3,-999.0,49,-99.99,,,1.52,Acu-Link.com,2013-04-20 18:38:00,
2013-04-20 14:53:00,54.7,34.3,29.68,South,180,4.7,-999.0,46,-99.99,,,1.52,Acu-Link.com,2013-04-20 18:53:00,
2013-04-20 15:08:00,53.6,34.4,29.68,NNW,337,3.1,-999.0,48,-99.99,,,1.52,Acu-Link.com,2013-04-20 19:08:00,
2013-04-20 15:23:00,54.3,33.4,29.68,West,270,5.8,-999.0,45,-99.99,,,1.52,Acu-Link.com,2013-04-20 19:23:00,
2013-04-20 15:38:00,54.3,32.3,29.69,SSE,157,4.7,-999.0,43,-99.99,,,1.52,Acu-Link.com,2013-04-20 19:38:00,
2013-04-20 15:54:00,54.3,31.1,29.69,NNW,337,3.8,-999.0,41,-99.99,,,1.52,Acu-Link.com,2013-04-20 19:54:00,
2013-04-20 16:09:00,54.9,30.4,29.69,WNW,292,4.7,-999.0,39,-99.99,,,1.52,Acu-Link.com,2013-04-20 20:09:00,
2013-04-20 16:24:00,54.5,33.0,29.70,NNE,22,2.7,-999.0,44,-99.99,,,1.52,Acu-Link.com,2013-04-20 20:24:00,
2013-04-20 16:39:00,54.9,31.0,29.71,WNW,292,3.1,-999.0,40,-99.99,,,1.52,Acu-Link.com,2013-04-20 20:39:00,
2013-04-20 16:54:00,55.0,30.5,29.71,WNW,292,6.7,-999.0,39,-99.99,,,1.52,Acu-Link.com,2013-04-20 20:54:00,
2013-04-20 17:10:00,55.9,30.7,29.72,WNW,292,5.8,-999.0,38,-99.99,,,1.52,Acu-Link.com,2013-04-20 21:10:00,
2013-04-20 17:25:00,54.7,30.2,29.74,NNE,22,1.6,-999.0,39,-99.99,,,1.52,Acu-Link.com,2013-04-20 21:25:00,
2013-04-20 17:40:00,55.6,29.7,29.75,WNW,292,5.1,-999.0,37,-99.99,,,1.52,Acu-Link.com,2013-04-20 21:40:00,
2013-04-20 17:55:00,55.6,29.7,29.75,North,0,3.8,-999.0,37,-99.99,,,1.52,Acu-Link.com,2013-04-20 21:55:00,
2013-04-20 18:10:00,54.5,29.4,29.77,West,270,3.1,-999.0,38,-99.99,,,1.52,Acu-Link.com,2013-04-20 22:10:00,
2013-04-20 18:26:00,53.8,30.6,29.77,WNW,292,3.8,-999.0,41,-99.99,,,1.52,Acu-Link.com,2013-04-20 22:26:00,
2013-04-20 18:41:00,52.2,29.8,29.78,NW,315,2.2,-999.0,42,-99.99,,,1.52,Acu-Link.com,2013-04-20 22:41:00,
2013-04-20 18:56:00,51.3,29.5,29.79,WNW,292,6.3,-999.0,43,-99.99,,,1.52,Acu-Link.com,2013-04-20 22:56:00,
2013-04-20 19:11:00,50.4,29.8,29.81,WNW,292,2.2,-999.0,45,-99.99,,,1.52,Acu-Link.com,2013-04-20 23:11:00,
2013-04-20 19:27:00,49.1,29.2,29.82,WNW,292,3.1,-999.0,46,-99.99,,,1.52,Acu-Link.com,2013-04-20 23:27:00,
2013-04-20 19:42:00,48.4,29.1,29.83,East,90,1.6,-999.0,47,-99.99,,,1.52,Acu-Link.com,2013-04-20 23:42:00,
2013-04-20 19:57:00,47.8,28.1,29.84,West,270,2.7,-999.0,46,-99.99,,,1.52,Acu-Link.com,2013-04-20 23:57:00,
2013-04-20 20:12:00,46.9,27.3,29.86,NNW,337,3.1,-999.0,46,-99.99,,,1.52,Acu-Link.com,2013-04-21 00:12:00,
2013-04-20 20:27:00,46.2,27.1,29.87,NNW,337,2.7,-999.0,47,-99.99,,,1.52,Acu-Link.com,2013-04-21 00:27:00,
2013-04-20 20:43:00,45.7,27.1,29.88,NW,315,2.7,-999.0,48,-99.99,,,1.52,Acu-Link.com,2013-04-21 00:43:00,
2013-04-20 20:58:00,45.1,26.6,29.90,WNW,292,4.3,-999.0,48,-99.99,,,1.52,Acu-Link.com,2013-04-21 00:58:00,
2013-04-20 21:13:00,44.8,26.8,29.92,West,270,3.1,-999.0,49,-99.99,,,1.52,Acu-Link.com,2013-04-21 01:13:00,
2013-04-20 21:28:00,44.1,27.1,29.93,WNW,292,3.8,-999.0,51,-99.99,,,1.52,Acu-Link.com,2013-04-21 01:28:00,
2013-04-20 21:43:00,43.7,26.8,29.93,NW,315,2.7,-999.0,51,-99.99,,,1.52,Acu-Link.com,2013-04-21 01:43:00,
2013-04-20 21:59:00,43.3,26.9,29.95,North,0,3.8,-999.0,52,-99.99,,,1.52,Acu-Link.com,2013-04-21 01:59:00,
2013-04-20 22:14:00,42.8,27.3,29.95,NW,315,2.2,-999.0,54,-99.99,,,1.52,Acu-Link.com,2013-04-21 02:14:00,
2013-04-20 22:29:00,42.1,26.2,29.97,WNW,292,4.3,-999.0,53,-99.99,,,1.52,Acu-Link.com,2013-04-21 02:29:00,
2013-04-20 22:44:00,41.7,24.0,29.98,West,270,11.4,-999.0,49,-99.99,,,1.52,Acu-Link.com,2013-04-21 02:44:00,
2013-04-20 22:59:00,41.0,23.3,29.98,West,270,4.7,-999.0,49,-99.99,,,1.52,Acu-Link.com,2013-04-21 02:59:00,
2013-04-20 23:15:00,40.3,22.7,29.99,WNW,292,3.1,-999.0,49,-99.99,,,1.52,Acu-Link.com,2013-04-21 03:15:00,
2013-04-20 23:30:00,39.9,22.8,29.99,WNW,292,7.4,-999.0,50,-99.99,,,1.52,Acu-Link.com,2013-04-21 03:30:00,
2013-04-20 23:45:00,39.4,22.3,30.00,West,270,6.7,-999.0,50,-99.99,,,1.52,Acu-Link.com,2013-04-21 03:45:00,